Time;durP1;ratioP1;P1;durP2;ratioP2;P2;SDS_P1;SDS_P2;PMS_P1;PMS_P2;Temp;Humidity;BMP_temperature;BMP_pressure;BME280_temperature;BME280_humidity;BME280_pressure;Samples;Min_cycle;Max_cycle;Signal;HPM_P1;HPM_P2
2023/02/01 00:04:50;;;;;;;21.45;3.67;;;8.20;99.90;;;;;;10478490;28;20052;-25
2023/02/01 00:09:52;;;;;;;31.73;4.90;;;8.30;99.90;;;;;;10477647;28;20102;-25
2023/02/01 00:14:54;;;;;;;18.17;3.53;;;8.40;99.90;;;;;;10475808;28;20048;-25
2023/02/01 00:19:57;;;;;;;21.58;3.03;;;8.60;99.90;;;;;;10476401;28;20076;-25
2023/02/01 00:24:59;;;;;;;;;;;8.30;99.90;;;;;;10485817;28;20084;-27
2023/02/01 00:30:01;;;;;;;21.52;4.18;;;8.10;99.90;;;;;;10483932;28;19964;-25
2023/02/01 00:35:04;;;;;;;28.92;3.50;;;8.20;99.90;;;;;;10488222;28;20067;-25
2023/02/01 00:40:08;;;;;;;23.08;3.67;;;8.00;99.90;;;;;;10486790;28;20401;-25
2023/02/01 00:45:10;;;;;;;;;;;8.30;99.90;;;;;;10486108;28;20084;-24
2023/02/01 00:50:13;;;;;;;27.20;3.97;;;8.10;99.90;;;;;;10478742;28;19924;-26
2023/02/01 00:55:15;;;;;;;;;;;8.50;99.90;;;;;;10495205;28;20710;-25
2023/02/01 01:00:18;;;;;;;26.95;4.05;;;8.10;99.90;;;;;;10475753;28;20377;-25
2023/02/01 01:05:21;;;;;;;;;;;8.10;99.90;;;;;;10487780;28;20533;-26
2023/02/01 01:10:23;;;;;;;34.78;4.28;;;8.60;99.90;;;;;;10483339;28;19956;-24
2023/02/01 01:15:25;;;;;;;13.60;2.90;;;8.40;99.90;;;;;;10479508;28;20045;-26
2023/02/01 01:20:28;;;;;;;31.75;4.50;;;8.60;99.90;;;;;;10480365;28;20518;-24
2023/02/01 01:25:30;;;;;;;32.13;3.70;;;8.10;99.90;;;;;;10481511;28;20107;-25
2023/02/01 01:30:32;;;;;;;30.67;4.10;;;8.40;99.90;;;;;;10481276;28;20143;-26
2023/02/01 01:35:36;;;;;;;36.83;3.60;;;8.50;99.90;;;;;;10484081;28;20048;-26
2023/02/01 01:40:38;;;;;;;20.98;4.28;;;8.20;99.90;;;;;;10483962;28;20055;-25
2023/02/01 01:45:40;;;;;;;30.63;3.75;;;8.30;99.90;;;;;;10471894;28;20070;-25
2023/02/01 01:50:49;;;;;;;17.90;3.83;;;8.20;99.90;;;;;;10476749;28;20052;-25
2023/02/01 01:55:53;;;;;;;25.77;4.15;;;8.10;99.90;;;;;;10473739;28;20053;-26
2023/02/01 02:00:55;;;;;;;25.50;4.13;;;7.90;99.90;;;;;;10481892;28;20532;-25
2023/02/01 02:06:01;;;;;;;26.75;3.95;;;8.00;99.90;;;;;;10474930;28;20129;-23
2023/02/01 02:11:03;;;;;;;23.75;4.60;;;8.30;99.90;;;;;;10466283;28;20053;-25
2023/02/01 02:16:16;;;;;;;25.10;4.85;;;8.20;99.90;;;;;;10483602;28;20110;-25
2023/02/01 02:21:33;;;;;;;25.67;3.20;;;8.10;99.90;;;;;;10474654;28;20144;-25
2023/02/01 02:27:01;;;;;;;28.52;4.15;;;7.80;99.90;;;;;;10479734;28;20115;-25
2023/02/01 02:32:36;;;;;;;32.20;4.53;;;8.10;99.90;;;;;;10476773;28;20056;-24
2023/02/01 02:37:42;;;;;;;42.95;4.97;;;7.90;99.90;;;;;;10484345;28;20045;-27
2023/02/01 02:48:18;;;;;;;23.95;3.95;;;8.20;99.90;;;;;;10489171;28;20052;-25
2023/02/01 03:04:09;;;;;;;28.38;5.38;;;8.50;99.90;;;;;;10483676;28;20048;-24
2023/02/01 03:09:18;;;;;;;36.88;4.97;;;7.90;99.90;;;;;;10495871;28;20242;-24
2023/02/01 03:14:24;;;;;;;28.55;4.53;;;7.90;99.90;;;;;;10486043;28;20068;-24
2023/02/01 03:19:31;;;;;;;27.13;4.78;;;7.70;99.90;;;;;;10491472;28;20053;-25
2023/02/01 03:24:39;;;;;;;31.75;4.95;;;7.80;99.90;;;;;;10486762;28;20091;-24
2023/02/01 03:29:45;;;;;;;23.25;4.00;;;7.60;99.90;;;;;;10477006;28;20056;-26
2023/02/01 03:34:48;;;;;;;27.48;3.63;;;7.70;99.90;;;;;;10481674;28;20098;-24
2023/02/01 03:39:57;;;;;;;31.90;4.93;;;7.80;99.90;;;;;;10489449;28;20084;-24
2023/02/01 03:45:08;;;;;;;26.48;3.60;;;7.60;99.90;;;;;;10488088;28;20048;-24
2023/02/01 03:50:14;;;;;;;31.45;4.97;;;7.90;99.90;;;;;;10479320;28;20105;-25
2023/02/01 03:55:21;;;;;;;28.52;4.05;;;7.80;99.90;;;;;;10487263;28;20139;-26
2023/02/01 04:00:25;;;;;;;15.23;2.90;;;7.60;99.90;;;;;;10477778;28;20044;-26
2023/02/01 04:05:27;;;;;;;35.05;3.65;;;8.10;99.90;;;;;;10484176;28;20862;-25
2023/02/01 04:10:30;;;;;;;26.52;4.53;;;8.40;99.90;;;;;;10492451;28;20404;-25
2023/02/01 04:15:31;;;;;;;;;;;8.20;99.90;;;;;;10477854;28;20242;-25
2023/02/01 04:20:33;;;;;;;20.98;4.15;;;8.50;99.90;;;;;;10484240;28;20015;-25
2023/02/01 04:25:37;;;;;;;24.00;3.25;;;7.80;99.90;;;;;;10480592;28;20048;-25
2023/02/01 04:30:38;;;;;;;;;;;8.00;99.90;;;;;;10487716;28;20076;-25
2023/02/01 04:35:40;;;;;;;28.10;5.22;;;8.30;99.90;;;;;;10484950;28;20003;-27
2023/02/01 04:40:43;;;;;;;43.22;4.43;;;7.60;99.90;;;;;;10485158;28;20126;-26
2023/02/01 04:45:49;;;;;;;31.50;4.70;;;7.90;99.90;;;;;;10477150;28;20048;-25
2023/02/01 04:50:51;;;;;;;31.63;4.32;;;8.00;99.90;;;;;;10483015;28;20048;-26
2023/02/01 04:55:54;;;;;;;22.08;5.05;;;7.50;99.90;;;;;;10470304;28;20076;-27
2023/02/01 05:00:56;;;;;;;;;;;8.30;99.90;;;;;;10477955;28;20133;-26
2023/02/01 05:05:57;;;;;;;24.00;3.63;;;7.60;99.90;;;;;;10487445;28;20364;-25
2023/02/01 05:11:02;;;;;;;26.83;3.95;;;7.60;99.90;;;;;;10473979;28;20080;-26
2023/02/01 05:16:04;;;;;;;33.47;4.82;;;7.60;99.90;;;;;;10477459;28;20436;-25
2023/02/01 05:21:06;;;;;;;28.23;6.37;;;7.50;99.90;;;;;;10473797;28;20048;-27
2023/02/01 05:26:09;;;;;;;25.77;3.40;;;7.60;99.90;;;;;;10473021;28;20055;-26
2023/02/01 05:31:11;;;;;;;;;;;7.90;99.90;;;;;;10474343;28;20550;-24
2023/02/01 05:36:13;;;;;;;27.10;4.20;;;7.70;99.90;;;;;;10474220;28;20001;-26
2023/02/01 05:41:16;;;;;;;32.50;4.25;;;7.90;99.90;;;;;;10468684;28;20040;-26
2023/02/01 05:46:18;;;;;;;22.27;4.13;;;7.40;99.90;;;;;;10471888;28;20142;-25
2023/02/01 05:51:20;;;;;;;36.88;4.53;;;7.70;99.90;;;;;;10478617;28;20051;-26
2023/02/01 05:56:24;;;;;;;28.90;4.38;;;7.40;99.90;;;;;;10487822;28;20795;-25
2023/02/01 06:01:25;;;;;;;;;;;7.80;99.90;;;;;;10486737;28;20072;-26
2023/02/01 06:06:27;;;;;;;32.95;5.57;;;7.50;99.90;;;;;;10489571;28;19920;-26
2023/02/01 06:11:31;;;;;;;25.35;4.13;;;7.30;99.90;;;;;;10489223;28;20563;-24
2023/02/01 06:16:32;;;;;;;20.67;3.60;;;7.90;99.90;;;;;;10482157;28;20052;-23
2023/02/01 06:21:36;;;;;;;33.60;4.30;;;7.60;99.90;;;;;;10489623;28;20105;-27
2023/02/01 06:26:39;;;;;;;21.70;3.10;;;8.00;99.90;;;;;;10482012;28;20072;-23
2023/02/01 06:31:42;;;;;;;27.58;4.30;;;7.80;99.90;;;;;;10464838;28;20049;-25
2023/02/01 06:36:44;;;;;;;32.83;4.10;;;7.50;99.90;;;;;;10481012;28;20158;-25
2023/02/01 06:41:48;;;;;;;25.98;3.90;;;8.90;99.90;;;;;;10486218;28;20060;-25
2023/02/01 06:46:50;;;;;;;15.15;3.30;;;8.20;99.90;;;;;;10484449;28;20052;-25
2023/02/01 06:51:52;;;;;;;28.52;3.90;;;8.60;99.90;;;;;;10476907;28;20106;-26
2023/02/01 06:56:55;;;;;;;26.00;3.88;;;7.80;99.90;;;;;;10473596;28;20081;-25
2023/02/01 07:15:22;;;;;;;20.42;3.17;;;7.50;99.90;;;;;;10505541;27;20132;-25
2023/02/01 07:20:25;;;;;;;28.20;4.30;;;8.70;99.90;;;;;;10517013;28;20504;-24
2023/02/01 07:25:27;;;;;;;21.67;3.83;;;8.00;99.90;;;;;;10514362;28;20076;-25
2023/02/01 07:30:30;;;;;;;23.15;4.68;;;8.00;99.90;;;;;;10514323;28;20055;-25
2023/02/01 07:35:32;;;;;;;;;;;7.90;99.90;;;;;;10517497;28;20076;-25
2023/02/01 07:40:33;;;;;;;34.05;5.20;;;8.10;99.90;;;;;;10511683;28;19928;-25
2023/02/01 07:45:37;;;;;;;49.10;4.15;;;7.70;99.90;;;;;;10507546;28;20130;-23
2023/02/01 07:50:39;;;;;;;23.45;3.80;;;7.90;99.90;;;;;;10507040;28;20076;-25
2023/02/01 07:55:41;;;;;;;29.98;4.00;;;7.90;99.90;;;;;;10511458;28;20071;-25
2023/02/01 08:06:06;;;;;;;36.72;4.70;;;7.90;99.90;;;;;;10510542;28;20127;-25
2023/02/01 08:11:08;;;;;;;26.52;3.65;;;7.70;99.90;;;;;;10518916;28;20407;-25
2023/02/01 08:16:13;;;;;;;26.25;4.47;;;7.70;99.90;;;;;;10504457;28;20037;-25
2023/02/01 08:21:17;;;;;;;24.23;3.53;;;8.10;99.90;;;;;;10510567;28;20102;-24
2023/02/01 08:26:21;;;;;;;23.05;4.47;;;8.10;99.90;;;;;;10482887;28;20135;-25
2023/02/01 08:31:25;;;;;;;35.67;3.83;;;7.80;99.90;;;;;;10488812;28;20075;-25
2023/02/01 08:36:29;;;;;;;24.17;3.35;;;8.20;99.90;;;;;;10487935;28;20071;-25
2023/02/01 08:41:31;;;;;;;37.03;4.40;;;8.30;99.90;;;;;;10485617;28;20071;-25
2023/02/01 08:46:34;;;;;;;22.92;3.25;;;7.90;99.90;;;;;;10481805;28;20072;-25
2023/02/01 08:51:36;;;;;;;25.13;3.83;;;8.00;99.90;;;;;;10480900;28;20060;-24
2023/02/01 08:56:38;;;;;;;24.63;3.65;;;7.90;99.90;;;;;;10482267;28;20049;-24
2023/02/01 09:01:42;;;;;;;20.98;3.30;;;8.10;99.90;;;;;;10493621;28;20056;-26
2023/02/01 09:06:43;;;;;;;24.05;3.35;;;8.00;99.90;;;;;;10490046;28;20477;-25
2023/02/01 09:11:45;;;;;;;29.13;4.15;;;8.10;99.90;;;;;;10489780;28;20052;-26
2023/02/01 09:16:49;;;;;;;24.65;3.60;;;8.10;99.90;;;;;;10477858;28;20067;-28
2023/02/01 09:21:51;;;;;;;;;;;8.50;99.90;;;;;;10485786;28;20381;-24
2023/02/01 09:26:52;;;;;;;36.92;4.05;;;8.20;99.90;;;;;;10486670;28;20026;-27
2023/02/01 09:31:56;;;;;;;32.55;3.70;;;8.20;99.90;;;;;;10487301;28;20044;-24
2023/02/01 09:36:57;;;;;;;33.03;4.20;;;8.20;99.90;;;;;;10479182;28;20056;-25
2023/02/01 09:42:08;;;;;;;23.17;3.70;;;8.60;99.90;;;;;;10473305;28;20085;-25
2023/02/01 09:47:14;;;;;;;19.45;3.15;;;8.60;99.90;;;;;;10478759;28;20044;-25
2023/02/01 09:52:27;;;;;;;28.55;4.20;;;9.20;99.90;;;;;;10481357;28;20060;-24
2023/02/01 09:57:41;;;;;;;26.25;4.45;;;8.40;99.90;;;;;;10476151;28;20044;-29
2023/02/01 10:02:45;;;;;;;29.35;3.90;;;8.20;99.90;;;;;;10483896;28;20126;-24
2023/02/01 10:08:00;;;;;;;43.80;6.10;;;8.50;99.90;;;;;;10480185;28;20135;-24
2023/02/01 10:13:35;;;;;;;23.90;4.05;;;8.50;99.90;;;;;;10478433;28;20064;-26
2023/02/01 10:18:58;;;;;;;35.35;6.00;;;8.30;99.90;;;;;;10484476;28;20201;-24
2023/02/01 10:24:16;;;;;;;18.48;4.20;;;8.10;99.90;;;;;;10480968;28;20416;-25
2023/02/01 10:29:21;;;;;;;29.55;4.10;;;8.90;99.90;;;;;;10469781;28;20133;-23
2023/02/01 10:34:28;;;;;;;36.00;5.72;;;8.30;99.90;;;;;;10485557;28;20527;-25
2023/02/01 10:39:30;;;;;;;23.13;3.80;;;8.30;99.90;;;;;;10469411;28;20064;-27
2023/02/01 10:44:37;;;;;;;25.55;3.35;;;8.80;99.90;;;;;;10476653;28;20083;-25
2023/02/01 10:49:50;;;;;;;30.90;4.40;;;9.10;99.90;;;;;;10484621;28;20339;-25
2023/02/01 10:54:52;;;;;;;26.20;4.35;;;8.90;99.90;;;;;;10471087;28;20075;-26
2023/02/01 10:59:54;;;;;;;26.08;4.85;;;8.90;99.90;;;;;;10482178;28;20129;-25
2023/02/01 11:05:09;;;;;;;70.45;7.35;;;8.60;99.90;;;;;;10485773;28;20576;-24
2023/02/01 11:10:37;;;;;;;29.55;4.47;;;8.60;99.90;;;;;;10481679;28;20049;-25
2023/02/01 11:15:43;;;;;;;33.25;3.45;;;8.90;99.90;;;;;;10477556;28;20052;-26
2023/02/01 11:20:49;;;;;;;30.30;2.97;;;9.20;99.90;;;;;;10495414;28;20057;-25
2023/02/01 11:25:53;;;;;;;24.27;3.42;;;10.50;99.90;;;;;;10479602;28;20079;-25
2023/02/01 11:30:59;;;;;;;26.67;3.80;;;9.50;99.90;;;;;;10475351;28;20045;-25
2023/02/01 11:36:07;;;;;;;30.48;4.05;;;8.80;99.90;;;;;;10481071;28;20049;-26
2023/02/01 11:41:14;;;;;;;25.40;4.05;;;8.70;99.90;;;;;;10471730;28;20041;-25
2023/02/01 11:46:24;;;;;;;22.05;4.32;;;9.30;99.90;;;;;;10481362;28;20047;-26
2023/02/01 11:51:41;;;;;;;32.00;4.03;;;8.60;99.90;;;;;;10475276;28;20048;-26
2023/02/01 11:56:50;;;;;;;31.40;3.63;;;8.60;99.90;;;;;;10476778;28;20474;-25
2023/02/01 12:02:14;;;;;;;20.65;3.25;;;8.80;99.90;;;;;;10476031;28;20132;-25
2023/02/01 12:07:21;;;;;;;22.45;4.03;;;9.30;99.90;;;;;;10477153;28;20045;-25
2023/02/01 12:12:29;;;;;;;20.50;2.92;;;8.90;99.90;;;;;;10486678;28;20496;-25
2023/02/01 12:17:59;;;;;;;28.05;5.38;;;9.30;99.90;;;;;;10490306;28;20132;-25
2023/02/01 12:23:16;;;;;;;17.10;2.75;;;9.10;99.90;;;;;;10483217;28;20065;-26
2023/02/01 12:28:41;;;;;;;22.38;3.42;;;9.00;99.90;;;;;;10474003;28;20084;-25
2023/02/01 12:33:54;;;;;;;33.35;4.55;;;9.40;99.90;;;;;;10475690;28;20070;-25
2023/02/01 12:39:09;;;;;;;34.78;5.03;;;9.00;99.90;;;;;;10482402;28;20040;-25
2023/02/01 12:44:20;;;;;;;28.70;3.90;;;9.20;99.90;;;;;;10492790;28;20504;-26
2023/02/01 12:49:28;;;;;;;35.45;4.20;;;9.20;99.90;;;;;;10486325;28;20072;-24
2023/02/01 12:54:38;;;;;;;20.20;3.13;;;8.70;99.90;;;;;;10471514;28;20390;-25
2023/02/01 12:59:44;;;;;;;21.77;4.25;;;9.10;99.90;;;;;;10472656;28;20049;-25
2023/02/01 13:04:57;;;;;;;16.58;3.95;;;9.20;99.90;;;;;;10491728;28;20071;-25
2023/02/01 13:10:06;;;;;;;28.15;5.22;;;9.40;99.90;;;;;;10485944;28;20045;-30
2023/02/01 13:15:17;;;;;;;42.60;5.25;;;8.90;99.90;;;;;;10494052;28;20063;-25
2023/02/01 13:20:25;;;;;;;31.77;4.85;;;8.90;99.90;;;;;;10496516;28;20102;-25
2023/02/01 13:25:34;;;;;;;33.05;5.10;;;9.00;99.90;;;;;;10480721;28;20048;-23
2023/02/01 13:30:53;;;;;;;26.42;4.00;;;9.40;99.90;;;;;;10484855;28;20052;-25
2023/02/01 13:36:24;;;;;;;32.15;4.80;;;9.30;99.90;;;;;;10489833;28;20131;-23
2023/02/01 13:41:30;;;;;;;32.88;3.95;;;8.80;99.90;;;;;;10466437;28;20148;-25
2023/02/01 13:46:40;;;;;;;31.02;4.65;;;9.00;99.90;;;;;;10488483;28;20095;-26
2023/02/01 13:51:46;;;;;;;38.63;5.35;;;9.10;99.90;;;;;;10481915;28;20049;-26
2023/02/01 13:56:50;;;;;;;29.55;4.30;;;9.00;99.90;;;;;;10493140;28;20952;-26
2023/02/01 14:01:52;;;;;;;40.70;4.13;;;9.10;99.90;;;;;;10491134;28;20056;-25
2023/02/01 14:06:56;;;;;;;25.17;4.03;;;8.90;99.90;;;;;;10485815;28;20440;-25
2023/02/01 14:12:05;;;;;;;30.38;4.85;;;8.90;99.90;;;;;;10489451;28;20461;-24
2023/02/01 14:17:37;;;;;;;24.30;3.63;;;9.30;99.90;;;;;;10468660;28;20144;-24
2023/02/01 14:22:40;;;;;;;37.15;4.75;;;8.90;99.90;;;;;;10466850;28;20516;-24
2023/02/01 14:27:43;;;;;;;15.30;2.90;;;8.90;99.90;;;;;;10470859;28;20048;-27
2023/02/01 14:32:46;;;;;;;32.55;3.63;;;9.10;99.90;;;;;;10476873;28;20053;-25
2023/02/01 14:37:52;;;;;;;;;;;9.40;99.90;;;;;;10478579;28;20053;-26
2023/02/01 14:42:56;;;;;;;24.55;4.40;;;9.20;99.90;;;;;;10485247;28;20406;-26
2023/02/01 14:48:32;;;;;;;32.45;6.18;;;9.10;99.90;;;;;;10489611;28;20102;-25
2023/02/01 14:53:35;;;;;;;35.60;4.75;;;9.00;99.90;;;;;;10470562;28;20484;-25
2023/02/01 14:58:45;;;;;;;25.63;3.28;;;8.90;99.90;;;;;;10467676;28;20485;-24
2023/02/01 15:03:58;;;;;;;33.00;4.15;;;9.30;99.90;;;;;;10467687;28;20497;-25
2023/02/01 15:09:04;;;;;;;34.75;4.15;;;9.10;99.90;;;;;;10484204;28;20087;-24
2023/02/01 15:14:15;;;;;;;28.90;3.30;;;9.10;99.90;;;;;;10480786;28;20064;-25
2023/02/01 15:19:17;;;;;;;20.50;3.75;;;9.10;99.90;;;;;;10481510;28;20059;-26
2023/02/01 15:24:24;;;;;;;29.38;3.25;;;9.50;99.90;;;;;;10474500;28;20048;-26
2023/02/01 15:29:32;;;;;;;28.00;4.18;;;9.40;99.90;;;;;;10485725;28;20089;-26
2023/02/01 15:34:48;;;;;;;22.45;4.45;;;9.30;99.90;;;;;;10486417;28;20413;-28
2023/02/01 15:40:19;;;;;;;19.38;4.05;;;9.40;99.90;;;;;;10478821;28;20537;-26
2023/02/01 15:45:26;;;;;;;13.52;2.25;;;9.20;99.90;;;;;;10465134;28;20045;-26
2023/02/01 15:50:31;;;;;;;12.55;2.42;;;9.50;99.90;;;;;;10471239;28;20041;-25
2023/02/01 15:55:37;;;;;;;27.08;4.10;;;9.50;99.90;;;;;;10470729;28;20442;-24
2023/02/01 16:00:46;;;;;;;26.73;4.22;;;9.30;99.90;;;;;;10489759;28;20056;-26
2023/02/01 16:05:57;;;;;;;20.08;3.22;;;9.70;99.90;;;;;;10480185;28;20447;-26
2023/02/01 16:11:02;;;;;;;22.77;3.38;;;9.80;99.90;;;;;;10480303;28;20687;-26
2023/02/01 16:16:13;;;;;;;13.98;2.67;;;9.30;99.90;;;;;;10480456;28;20052;-25
2023/02/01 16:21:15;;;;;;;20.83;4.10;;;9.40;99.90;;;;;;10480236;28;20066;-25
2023/02/01 16:26:17;;;;;;;37.22;5.95;;;9.40;99.90;;;;;;10477452;28;20127;-24
2023/02/01 16:31:24;;;;;;;24.73;3.75;;;9.10;99.90;;;;;;10482463;28;20127;-25
2023/02/01 16:36:27;;;;;;;27.08;4.13;;;9.30;99.90;;;;;;10490483;28;20060;-25
2023/02/01 16:41:29;;;;;;;20.35;3.55;;;9.10;99.90;;;;;;10480352;28;20056;-26
2023/02/01 16:46:35;;;;;;;26.55;3.10;;;9.90;99.90;;;;;;10491357;28;20135;-25
2023/02/01 16:51:41;;;;;;;27.48;5.00;;;9.00;99.90;;;;;;10480414;28;20114;-24
2023/02/01 16:56:45;;;;;;;31.75;4.15;;;9.10;99.90;;;;;;10479198;28;20390;-25
2023/02/01 17:01:48;;;;;;;30.02;5.00;;;9.00;99.90;;;;;;10469858;28;20499;-27
2023/02/01 17:06:50;;;;;;;22.73;3.97;;;8.90;99.90;;;;;;10481617;28;20658;-25
2023/02/01 17:11:52;;;;;;;28.30;5.45;;;8.90;99.90;;;;;;10484365;28;20436;-24
2023/02/01 17:16:56;;;;;;;35.05;5.40;;;9.40;99.90;;;;;;10466852;28;20041;-26
2023/02/01 17:21:58;;;;;;;33.45;4.38;;;9.10;99.90;;;;;;10478332;28;20059;-24
2023/02/01 17:27:00;;;;;;;15.20;3.37;;;9.20;99.90;;;;;;10464846;28;20051;-26
2023/02/01 17:32:04;;;;;;;21.13;4.15;;;9.10;99.90;;;;;;10472781;28;20520;-25
2023/02/01 17:37:06;;;;;;;26.48;3.90;;;9.00;99.90;;;;;;10465431;28;20139;-25
2023/02/01 17:42:11;;;;;;;29.45;3.20;;;9.10;99.90;;;;;;10492804;28;20049;-25
2023/02/01 17:47:15;;;;;;;22.67;3.13;;;8.90;99.90;;;;;;10470781;28;20045;-25
2023/02/01 17:52:18;;;;;;;32.92;4.53;;;9.40;99.90;;;;;;10475118;28;20052;-26
2023/02/01 17:57:20;;;;;;;29.27;4.30;;;9.10;99.90;;;;;;10473448;28;20148;-25
2023/02/01 18:02:25;;;;;;;27.97;3.43;;;9.10;99.90;;;;;;10458128;28;20060;-25
2023/02/01 18:07:27;;;;;;;34.67;4.68;;;9.10;99.90;;;;;;10460126;28;20465;-22
2023/02/01 18:12:30;;;;;;;39.25;6.05;;;9.00;99.90;;;;;;10470758;28;20131;-24
2023/02/01 18:17:33;;;;;;;31.95;5.72;;;9.20;99.90;;;;;;10482736;28;20454;-25
2023/02/01 18:22:35;;;;;;;32.63;5.05;;;9.20;99.90;;;;;;10475166;28;20045;-24
2023/02/01 18:27:37;;;;;;;37.60;4.15;;;9.10;99.90;;;;;;10485069;28;20071;-26
2023/02/01 18:32:41;;;;;;;36.42;4.47;;;8.90;99.90;;;;;;10479947;28;20072;-26
2023/02/01 18:37:43;;;;;;;29.48;4.93;;;9.90;99.90;;;;;;10475784;28;20068;-26
2023/02/01 18:42:45;;;;;;;24.10;5.10;;;9.10;99.90;;;;;;10476765;28;20130;-26
2023/02/01 18:47:48;;;;;;;28.50;4.40;;;9.20;99.90;;;;;;10467032;28;20135;-24
2023/02/01 18:52:53;;;;;;;27.02;4.57;;;9.10;99.90;;;;;;10478075;28;20045;-25
2023/02/01 18:57:55;;;;;;;29.20;5.80;;;9.00;99.90;;;;;;10477023;28;20072;-24
2023/02/01 19:02:59;;;;;;;28.50;4.28;;;9.00;99.90;;;;;;10479723;28;20048;-24
2023/02/01 19:08:01;;;;;;;28.48;4.95;;;9.30;99.90;;;;;;10483951;28;20060;-26
2023/02/01 19:13:03;;;;;;;42.33;5.25;;;9.60;99.90;;;;;;10482635;28;20083;-24
2023/02/01 19:18:08;;;;;;;39.53;5.47;;;9.40;99.90;;;;;;10478429;28;20048;-25
2023/02/01 19:23:10;;;;;;;31.75;5.28;;;9.40;99.90;;;;;;10485294;28;20412;-25
2023/02/01 19:28:12;;;;;;;46.23;5.20;;;9.40;99.90;;;;;;10489781;28;20543;-26
2023/02/01 19:33:16;;;;;;;37.50;5.15;;;9.30;99.90;;;;;;10482274;28;20106;-26
2023/02/01 19:38:18;;;;;;;22.75;3.92;;;9.40;99.90;;;;;;10485341;28;20037;-26
2023/02/01 19:43:20;;;;;;;24.92;3.65;;;9.30;99.90;;;;;;10484848;28;20049;-25
2023/02/01 19:48:23;;;;;;;23.95;4.72;;;9.40;99.90;;;;;;10479217;28;20059;-28
2023/02/01 19:53:26;;;;;;;33.63;4.70;;;9.60;99.90;;;;;;10478040;28;20084;-26
2023/02/01 19:58:28;;;;;;;;;;;9.70;99.90;;;;;;10470025;28;20505;-25
2023/02/01 20:03:31;;;;;;;28.58;4.07;;;9.00;99.90;;;;;;10477542;28;19927;-24
2023/02/01 20:08:33;;;;;;;29.05;3.90;;;9.40;99.90;;;;;;10479697;28;20056;-25
2023/02/01 20:13:38;;;;;;;18.10;4.28;;;9.30;99.90;;;;;;10476636;28;20057;-26
2023/02/01 20:18:42;;;;;;;30.92;4.65;;;9.40;99.90;;;;;;10481772;28;20041;-26
2023/02/01 20:23:46;;;;;;;32.85;4.25;;;9.20;99.90;;;;;;10494926;28;20417;-26
2023/02/01 20:28:48;;;;;;;46.97;14.43;;;9.20;99.90;;;;;;10492162;28;20049;-26
2023/02/01 20:33:51;;;;;;;29.00;4.82;;;9.50;99.90;;;;;;10492654;28;20057;-26
2023/02/01 20:38:55;;;;;;;38.92;4.82;;;9.70;99.90;;;;;;10482770;28;20048;-24
2023/02/01 20:43:56;;;;;;;;;;;9.20;99.90;;;;;;10475084;28;20084;-28
2023/02/01 20:49:00;;;;;;;30.95;4.38;;;9.20;99.90;;;;;;10487213;28;20016;-25
2023/02/01 20:54:01;;;;;;;;;;;9.50;99.90;;;;;;10470198;28;20147;-24
2023/02/01 20:59:10;;;;;;;33.15;4.68;;;9.60;99.90;;;;;;10472035;28;20032;-27
2023/02/01 21:04:14;;;;;;;27.00;5.07;;;9.70;99.90;;;;;;10475711;28;20125;-25
2023/02/01 21:09:16;;;;;;;23.30;3.97;;;9.60;99.90;;;;;;10481918;28;20097;-27
2023/02/01 21:14:19;;;;;;;14.43;3.20;;;9.50;99.90;;;;;;10477164;28;20057;-25
2023/02/01 21:19:23;;;;;;;30.02;4.32;;;9.90;99.90;;;;;;10480226;28;20044;-26
2023/02/01 21:24:25;;;;;;;28.35;4.35;;;10.10;99.90;;;;;;10484212;28;20045;-26
2023/02/01 21:29:27;;;;;;;16.33;2.65;;;9.40;99.90;;;;;;10477792;28;20049;-26
2023/02/01 21:34:30;;;;;;;25.92;4.07;;;10.50;99.90;;;;;;10480338;28;20550;-27
2023/02/01 21:39:32;;;;;;;;;;;9.50;99.90;;;;;;10479076;28;20139;-26
2023/02/01 21:44:34;;;;;;;28.00;3.60;;;9.10;99.90;;;;;;10478037;28;19946;-25
2023/02/01 21:49:37;;;;;;;27.88;3.95;;;9.60;99.90;;;;;;10476770;28;20040;-26
2023/02/01 21:54:39;;;;;;;29.10;3.97;;;9.70;99.90;;;;;;10474351;28;20048;-30
2023/02/01 21:59:42;;;;;;;14.27;2.60;;;8.90;99.90;;;;;;10479996;28;20073;-26
2023/02/01 22:04:47;;;;;;;32.60;5.28;;;9.50;99.90;;;;;;10476423;28;20053;-25
2023/02/01 22:09:49;;;;;;;18.25;3.08;;;9.00;99.90;;;;;;10482962;28;20044;-25
2023/02/01 22:14:51;;;;;;;31.90;4.03;;;10.10;99.90;;;;;;10482564;28;20580;-25
2023/02/01 22:19:54;;;;;;;20.58;3.33;;;9.60;99.90;;;;;;10494628;28;20453;-26
2023/02/01 22:24:56;;;;;;;31.17;3.95;;;9.40;99.90;;;;;;10482418;28;20144;-25
2023/02/01 22:29:58;;;;;;;27.98;4.15;;;9.10;99.90;;;;;;10481329;28;20132;-27
2023/02/01 22:35:03;;;;;;;25.98;3.60;;;9.40;99.90;;;;;;10473380;28;20052;-26
2023/02/01 22:40:06;;;;;;;31.90;4.72;;;8.80;99.90;;;;;;10462997;28;20049;-26
2023/02/01 22:45:10;;;;;;;20.70;2.53;;;9.00;99.90;;;;;;10466422;28;20088;-26
2023/02/01 22:50:13;;;;;;;36.10;5.25;;;9.40;99.90;;;;;;10475463;28;20175;-27
2023/02/01 22:55:15;;;;;;;33.42;4.32;;;9.20;99.90;;;;;;10476785;28;20100;-26
2023/02/01 23:00:17;;;;;;;29.58;4.20;;;8.90;99.90;;;;;;10466508;28;20090;-25
2023/02/01 23:05:21;;;;;;;18.77;4.07;;;9.00;99.90;;;;;;10473146;28;20076;-26
2023/02/01 23:10:23;;;;;;;35.05;5.93;;;9.20;99.90;;;;;;10481844;28;20441;-26
2023/02/01 23:15:25;;;;;;;23.08;3.55;;;9.00;99.90;;;;;;10479113;28;20076;-27
2023/02/01 23:20:28;;;;;;;29.52;4.90;;;9.60;99.90;;;;;;10486090;28;20102;-26
2023/02/01 23:25:30;;;;;;;35.28;5.53;;;8.80;99.90;;;;;;10484403;28;20083;-26
2023/02/01 23:30:32;;;;;;;15.70;2.97;;;8.90;99.90;;;;;;10482208;28;20049;-26
2023/02/01 23:35:36;;;;;;;26.17;4.15;;;8.90;99.90;;;;;;10493142;28;20157;-26
2023/02/01 23:40:37;;;;;;;32.63;3.50;;;8.80;99.90;;;;;;10482253;28;20127;-26
2023/02/01 23:45:39;;;;;;;24.45;5.60;;;9.00;99.90;;;;;;10485292;28;20566;-26
2023/02/01 23:50:43;;;;;;;33.10;5.35;;;10.10;99.90;;;;;;10486190;28;20326;-25
2023/02/01 23:55:44;;;;;;;28.60;3.42;;;9.50;99.90;;;;;;10481961;28;20489;-25
